Time;durP1;ratioP1;P1;durP2;ratioP2;P2;SDS_P1;SDS_P2;PMS_P1;PMS_P2;Temp;Humidity;BMP_temperature;BMP_pressure;BME280_temperature;BME280_humidity;BME280_pressure;Samples;Min_cycle;Max_cycle;Signal;HPM_P1;HPM_P2
2023/09/08 00:01:49;;;;;;;7.20;5.88;;;17.20;1.00;;;;;;5003436;28;20034;-73
2023/09/08 00:04:14;;;;;;;7.47;5.50;;;17.20;1.00;;;;;;5027492;28;20052;-73
2023/09/08 00:06:41;;;;;;;17.50;6.85;;;17.20;1.00;;;;;;5012669;28;20458;-73
2023/09/08 00:09:07;;;;;;;7.93;6.10;;;17.10;1.00;;;;;;5015237;28;20037;-73
2023/09/08 00:11:32;;;;;;;10.77;6.10;;;17.10;1.00;;;;;;5006480;28;20038;-73
2023/09/08 00:13:58;;;;;;;7.63;5.47;;;17.10;1.00;;;;;;5025460;28;20771;-73
2023/09/08 00:16:24;;;;;;;10.70;6.07;;;17.00;1.00;;;;;;5012743;28;20072;-73
2023/09/08 00:18:50;;;;;;;8.05;6.55;;;16.90;1.00;;;;;;4994858;28;20061;-73
2023/09/08 00:21:16;;;;;;;8.63;6.20;;;16.90;1.00;;;;;;5007525;28;20068;-73
2023/09/08 00:23:41;;;;;;;8.18;6.05;;;16.80;1.00;;;;;;5028912;28;20502;-73
2023/09/08 00:26:07;;;;;;;10.32;6.68;;;16.80;1.70;;;;;;5027335;28;20079;-73
2023/09/08 00:28:33;;;;;;;9.93;6.30;;;16.80;21.90;;;;;;5023267;28;20087;-73
2023/09/08 00:31:00;;;;;;;8.02;5.82;;;16.80;44.90;;;;;;5012909;28;20044;-74
2023/09/08 00:33:26;;;;;;;9.25;5.75;;;16.70;60.10;;;;;;5036608;28;20053;-73
2023/09/08 00:35:53;;;;;;;7.57;5.38;;;16.80;79.10;;;;;;5035045;28;20045;-73
2023/09/08 00:38:19;;;;;;;8.57;6.05;;;16.70;84.20;;;;;;5003914;28;20046;-73
2023/09/08 00:40:45;;;;;;;8.45;5.75;;;16.60;88.80;;;;;;5025538;28;20045;-73
2023/09/08 00:43:10;;;;;;;12.70;6.68;;;16.50;93.80;;;;;;5004942;28;20451;-73
2023/09/08 00:45:41;;;;;;;10.80;5.72;;;16.50;97.40;;;;;;5027186;28;20087;-73
2023/09/08 00:48:07;;;;;;;7.15;5.93;;;16.40;99.90;;;;;;5009016;28;20495;-73
2023/09/08 00:50:34;;;;;;;8.88;5.80;;;16.30;99.90;;;;;;5019648;28;20448;-73
2023/09/08 00:53:00;;;;;;;7.47;6.22;;;16.30;99.90;;;;;;5026322;28;20083;-73
2023/09/08 00:55:26;;;;;;;8.73;6.57;;;16.30;99.90;;;;;;5013093;28;20075;-73
2023/09/08 00:57:51;;;;;;;11.48;6.43;;;16.20;99.90;;;;;;5009704;28;20028;-72
2023/09/08 01:00:17;;;;;;;8.52;6.38;;;16.10;99.90;;;;;;5009292;28;20124;-73
2023/09/08 01:02:45;;;;;;;9.05;6.05;;;16.00;99.90;;;;;;5010103;28;20041;-73
2023/09/08 01:05:11;;;;;;;7.38;6.00;;;16.00;99.90;;;;;;5024862;28;20080;-73
2023/09/08 01:07:37;;;;;;;9.00;6.53;;;15.90;99.90;;;;;;5007865;28;20049;-72
2023/09/08 01:10:05;;;;;;;8.75;6.38;;;15.80;99.90;;;;;;5029034;28;20048;-73
2023/09/08 01:12:33;;;;;;;8.35;6.60;;;15.80;99.90;;;;;;5013537;28;20037;-73
2023/09/08 01:14:58;;;;;;;9.93;6.22;;;15.80;99.90;;;;;;5011203;28;20075;-72
2023/09/08 01:17:25;;;;;;;8.98;6.45;;;15.70;99.90;;;;;;5023101;28;20139;-73
2023/09/08 01:19:54;;;;;;;7.32;6.15;;;15.60;99.90;;;;;;5007337;28;20044;-73
2023/09/08 01:22:20;;;;;;;8.52;6.07;;;15.60;99.90;;;;;;5003724;28;20037;-72
2023/09/08 01:25:23;;;;;;;9.57;6.90;;;15.60;99.90;;;;;;5026419;28;20117;-74
2023/09/08 01:27:55;;;;;;;9.55;6.55;;;15.60;99.90;;;;;;5007593;28;20752;-73
2023/09/08 01:30:24;;;;;;;9.13;6.32;;;15.50;99.90;;;;;;5001546;28;20045;-72
2023/09/08 01:32:50;;;;;;;7.55;6.30;;;15.50;99.90;;;;;;5025783;28;20032;-73
2023/09/08 01:35:16;;;;;;;9.20;6.82;;;15.40;99.90;;;;;;5015407;28;20126;-73
2023/09/08 01:37:46;;;;;;;7.55;6.20;;;15.40;99.90;;;;;;5012719;28;20068;-73
2023/09/08 01:40:12;;;;;;;8.55;6.35;;;15.30;99.90;;;;;;5029066;28;20083;-73
2023/09/08 01:42:38;;;;;;;7.28;6.00;;;15.30;99.90;;;;;;5018200;28;20056;-73
2023/09/08 01:45:04;;;;;;;9.45;6.97;;;15.20;99.90;;;;;;5021566;28;20369;-72
2023/09/08 01:47:31;;;;;;;7.95;6.35;;;15.20;99.90;;;;;;5006338;28;20067;-73
2023/09/08 01:49:56;;;;;;;10.68;6.82;;;15.20;99.90;;;;;;5024142;28;20041;-73
2023/09/08 01:52:22;;;;;;;9.20;6.78;;;15.10;99.90;;;;;;5028176;28;20036;-73
2023/09/08 01:54:47;;;;;;;8.30;6.68;;;15.10;99.90;;;;;;5029728;28;20044;-73
2023/09/08 01:57:13;;;;;;;9.93;6.75;;;15.00;99.90;;;;;;5016403;28;20040;-73
2023/09/08 01:59:39;;;;;;;9.63;6.45;;;15.00;99.90;;;;;;5017139;28;20060;-72
2023/09/08 02:02:06;;;;;;;8.23;6.53;;;14.90;99.90;;;;;;5030307;28;20041;-72
2023/09/08 02:04:32;;;;;;;10.95;7.07;;;14.90;99.90;;;;;;5014898;28;20083;-73
2023/09/08 02:06:58;;;;;;;11.77;7.20;;;14.80;99.90;;;;;;5027580;28;20128;-73
2023/09/08 02:09:34;;;;;;;10.25;6.70;;;14.80;99.90;;;;;;5028201;28;20040;-72
2023/09/08 02:12:00;;;;;;;9.73;6.22;;;14.80;99.90;;;;;;5003378;28;20084;-72
2023/09/08 02:14:26;;;;;;;8.00;5.90;;;14.70;99.90;;;;;;5052312;28;20119;-73
2023/09/08 02:16:51;;;;;;;10.45;6.57;;;14.70;99.90;;;;;;5004771;28;20441;-73
2023/09/08 02:19:17;;;;;;;7.93;6.38;;;14.70;99.90;;;;;;4998101;28;20034;-72
2023/09/08 02:21:43;;;;;;;10.63;6.82;;;14.70;99.90;;;;;;5025342;28;20108;-73
2023/09/08 02:24:08;;;;;;;9.32;6.57;;;14.70;1.00;;;;;;5025264;28;20116;-73
2023/09/08 02:26:34;;;;;;;9.65;6.40;;;14.60;1.00;;;;;;5021667;28;20033;-73
2023/09/08 02:29:00;;;;;;;8.73;6.60;;;14.60;1.00;;;;;;5024720;28;20063;-72
2023/09/08 02:31:29;;;;;;;8.25;6.18;;;14.60;1.00;;;;;;5008399;28;20044;-72
2023/09/08 02:33:54;;;;;;;10.30;7.15;;;14.60;1.00;;;;;;5012199;28;20060;-73
2023/09/08 02:36:26;;;;;;;11.77;7.45;;;14.60;1.00;;;;;;5023411;28;20044;-73
2023/09/08 02:38:53;;;;;;;10.77;7.05;;;14.60;1.00;;;;;;4998096;28;20079;-73
2023/09/08 02:41:18;;;;;;;9.13;6.88;;;14.60;1.00;;;;;;5003240;28;20872;-73
2023/09/08 02:43:44;;;;;;;13.60;7.22;;;14.50;1.00;;;;;;5028549;28;20107;-73
2023/09/08 02:46:10;;;;;;;9.32;7.50;;;14.50;1.00;;;;;;4999856;28;20063;-73
2023/09/08 02:48:35;;;;;;;9.95;7.07;;;14.60;1.00;;;;;;5011847;28;20075;-73
2023/09/08 02:51:01;;;;;;;12.10;8.02;;;14.60;1.00;;;;;;5023467;28;20448;-72
2023/09/08 02:53:28;;;;;;;9.90;7.32;;;14.60;1.00;;;;;;5022928;28;20041;-73
2023/09/08 02:55:58;;;;;;;10.93;7.22;;;14.60;1.00;;;;;;5009159;28;20546;-73
2023/09/08 02:58:24;;;;;;;10.38;8.07;;;14.60;1.00;;;;;;5006389;28;20912;-72
2023/09/08 03:00:51;;;;;;;12.10;8.38;;;14.70;1.00;;;;;;5027177;28;20041;-72
2023/09/08 03:03:18;;;;;;;13.80;8.30;;;14.70;1.00;;;;;;5011694;28;20414;-73
2023/09/08 03:05:44;;;;;;;12.45;8.15;;;14.80;1.00;;;;;;5027053;28;20055;-72
2023/09/08 03:08:09;;;;;;;12.73;7.88;;;14.80;1.00;;;;;;5005624;28;20042;-72
2023/09/08 03:10:35;;;;;;;12.25;8.57;;;14.90;1.00;;;;;;5010159;28;20033;-73
2023/09/08 03:13:01;;;;;;;12.02;8.55;;;14.80;1.00;;;;;;5015068;28;20041;-73
2023/09/08 03:15:28;;;;;;;12.20;8.52;;;14.80;1.00;;;;;;5046171;28;20680;-72
2023/09/08 03:18:01;;;;;;;11.30;8.15;;;14.80;1.00;;;;;;5025605;28;20045;-73
2023/09/08 03:20:28;;;;;;;11.55;7.85;;;14.90;1.00;;;;;;4998920;28;20052;-72
2023/09/08 03:22:54;;;;;;;12.07;7.70;;;14.80;1.00;;;;;;5022655;28;20491;-72
2023/09/08 03:25:20;;;;;;;14.95;8.18;;;14.80;1.00;;;;;;5017717;28;20086;-72
2023/09/08 03:27:45;;;;;;;12.07;8.48;;;14.80;1.00;;;;;;5026162;28;20116;-73
2023/09/08 03:30:11;;;;;;;11.52;8.70;;;14.80;1.00;;;;;;4995592;28;20041;-73
2023/09/08 03:32:37;;;;;;;11.35;7.75;;;14.80;1.00;;;;;;5003525;28;20053;-73
2023/09/08 03:35:06;;;;;;;11.23;8.00;;;14.80;1.00;;;;;;5038194;28;20037;-73
2023/09/08 03:37:32;;;;;;;10.25;8.23;;;14.90;1.00;;;;;;5027910;28;20049;-73
2023/09/08 03:39:57;;;;;;;14.13;8.10;;;14.90;1.00;;;;;;5010592;28;20189;-73
2023/09/08 03:42:23;;;;;;;11.85;8.73;;;14.90;1.00;;;;;;5024083;28;20041;-73
2023/09/08 03:44:48;;;;;;;11.40;8.63;;;14.90;1.00;;;;;;5007862;28;20044;-73
2023/09/08 03:47:14;;;;;;;13.18;8.25;;;14.90;1.00;;;;;;5024392;28;20040;-73
2023/09/08 03:49:40;;;;;;;13.23;8.38;;;14.80;1.00;;;;;;5006201;28;20414;-73
2023/09/08 03:52:05;;;;;;;11.85;8.27;;;14.90;1.00;;;;;;5035146;28;20029;-73
2023/09/08 03:54:31;;;;;;;12.55;9.15;;;14.90;1.00;;;;;;5034675;28;20044;-73
2023/09/08 03:56:56;;;;;;;12.27;8.45;;;14.90;1.00;;;;;;5037925;28;20091;-73
2023/09/08 03:59:22;;;;;;;12.63;8.35;;;14.90;1.00;;;;;;5012338;28;20036;-72
2023/09/08 04:01:48;;;;;;;15.63;8.48;;;14.90;1.00;;;;;;5031436;28;20036;-73
2023/09/08 04:04:13;;;;;;;12.23;8.38;;;14.90;1.00;;;;;;5011357;28;20033;-73
2023/09/08 04:06:39;;;;;;;14.38;8.60;;;14.90;1.00;;;;;;5023550;28;20041;-73
2023/09/08 04:09:05;;;;;;;13.23;9.13;;;14.90;1.00;;;;;;5021315;28;20040;-73
2023/09/08 04:11:30;;;;;;;13.38;8.98;;;14.90;1.00;;;;;;5012328;28;20052;-73
2023/09/08 04:13:56;;;;;;;11.27;8.35;;;14.80;1.00;;;;;;5027590;28;20025;-74
2023/09/08 04:16:21;;;;;;;11.82;7.95;;;14.80;1.00;;;;;;5007582;28;20793;-73
2023/09/08 04:18:47;;;;;;;13.38;8.65;;;14.80;1.00;;;;;;5021091;28;20159;-73
2023/09/08 04:21:13;;;;;;;13.23;8.75;;;14.80;1.00;;;;;;5018759;28;20045;-74
2023/09/08 04:23:39;;;;;;;13.85;9.00;;;14.80;1.00;;;;;;5029876;28;20076;-73
2023/09/08 04:26:04;;;;;;;11.45;8.68;;;14.70;1.00;;;;;;5015743;28;20558;-73
2023/09/08 04:28:30;;;;;;;11.38;8.30;;;14.70;1.00;;;;;;5040435;28;20072;-73
2023/09/08 04:30:55;;;;;;;13.50;9.15;;;14.60;1.00;;;;;;5040807;28;20040;-73
2023/09/08 04:33:23;;;;;;;11.55;8.23;;;14.70;1.00;;;;;;5023693;28;20410;-74
2023/09/08 04:35:49;;;;;;;11.10;8.75;;;14.60;1.00;;;;;;5018406;28;20049;-74
2023/09/08 04:38:14;;;;;;;11.48;8.32;;;14.70;1.00;;;;;;4999698;28;20044;-73
2023/09/08 04:40:45;;;;;;;13.93;9.20;;;14.60;1.00;;;;;;5019492;28;20137;-72
2023/09/08 04:43:11;;;;;;;14.10;8.57;;;14.60;1.00;;;;;;5023033;28;20519;-74
2023/09/08 04:45:37;;;;;;;11.65;8.25;;;14.60;1.00;;;;;;5023082;28;20044;-73
2023/09/08 04:48:03;;;;;;;11.10;8.77;;;14.60;1.00;;;;;;5028857;28;20690;-73
2023/09/08 04:50:29;;;;;;;12.68;9.02;;;14.50;1.00;;;;;;5029203;28;20046;-73
2023/09/08 04:52:55;;;;;;;13.75;8.43;;;14.50;1.00;;;;;;5015910;28;20162;-74
2023/09/08 04:55:20;;;;;;;11.50;8.27;;;14.50;1.00;;;;;;5027371;28;20041;-73
2023/09/08 04:57:46;;;;;;;12.38;9.13;;;14.50;1.00;;;;;;5027034;28;20040;-73
2023/09/08 05:00:12;;;;;;;13.52;8.55;;;14.50;1.00;;;;;;5013524;28;20073;-73
2023/09/08 05:02:38;;;;;;;13.43;8.55;;;14.50;1.00;;;;;;5013101;28;20588;-73
2023/09/08 05:05:04;;;;;;;13.93;8.43;;;14.50;1.00;;;;;;5016722;28;20033;-73
2023/09/08 05:07:29;;;;;;;13.88;8.55;;;14.40;1.00;;;;;;5029092;28;20090;-73
2023/09/08 05:09:55;;;;;;;15.27;8.93;;;14.40;1.00;;;;;;5034739;28;20056;-74
2023/09/08 05:12:20;;;;;;;12.10;8.75;;;14.40;1.00;;;;;;5021023;28;20098;-73
2023/09/08 05:14:46;;;;;;;12.85;8.63;;;14.40;1.00;;;;;;5030454;28;20124;-73
2023/09/08 05:17:12;;;;;;;11.57;8.43;;;14.40;1.00;;;;;;5007927;28;20077;-73
2023/09/08 05:19:37;;;;;;;13.27;8.57;;;14.50;1.00;;;;;;5012091;28;20029;-73
2023/09/08 05:22:05;;;;;;;12.02;7.88;;;14.50;1.00;;;;;;5024101;28;20403;-73
2023/09/08 05:24:30;;;;;;;12.60;8.48;;;14.50;1.00;;;;;;5025430;28;20124;-73
2023/09/08 05:26:56;;;;;;;11.23;8.23;;;14.50;1.00;;;;;;5008292;28;20051;-73
2023/09/08 05:29:22;;;;;;;11.73;8.07;;;14.60;1.00;;;;;;5020688;28;20088;-73
2023/09/08 05:31:47;;;;;;;17.58;9.30;;;14.60;1.00;;;;;;5004016;28;20151;-73
2023/09/08 05:34:13;;;;;;;12.05;8.35;;;14.60;1.00;;;;;;5028608;28;20083;-73
2023/09/08 05:36:40;;;;;;;12.57;8.35;;;14.60;1.00;;;;;;5025607;28;20044;-73
2023/09/08 05:39:06;;;;;;;13.98;8.20;;;14.60;1.00;;;;;;5029160;28;20021;-72
2023/09/08 05:41:33;;;;;;;13.63;8.57;;;14.70;1.00;;;;;;5027722;28;20102;-73
2023/09/08 05:43:59;;;;;;;16.60;8.60;;;14.70;1.00;;;;;;5005487;28;20051;-74
2023/09/08 05:46:25;;;;;;;13.52;8.40;;;14.70;1.00;;;;;;4997204;28;20033;-73
2023/09/08 05:48:50;;;;;;;12.05;8.65;;;14.80;1.00;;;;;;5023092;28;20047;-73
2023/09/08 05:51:16;;;;;;;12.75;8.32;;;14.90;4.30;;;;;;5010105;28;20086;-73
2023/09/08 05:53:42;;;;;;;11.38;7.70;;;15.10;19.70;;;;;;5028098;28;20561;-73
2023/09/08 05:56:07;;;;;;;11.07;8.20;;;15.30;40.80;;;;;;5007433;28;20451;-74
2023/09/08 05:58:33;;;;;;;11.45;7.70;;;15.50;66.40;;;;;;5014240;28;20767;-73
2023/09/08 06:01:01;;;;;;;10.52;7.72;;;15.70;87.00;;;;;;5022202;28;20126;-73
2023/09/08 06:03:26;;;;;;;13.45;7.32;;;15.80;99.00;;;;;;5026466;28;20094;-74
2023/09/08 06:05:52;;;;;;;12.35;7.65;;;16.10;99.90;;;;;;5008065;28;20041;-73
2023/09/08 06:08:18;;;;;;;11.35;7.43;;;16.30;99.90;;;;;;5018449;28;20441;-73
2023/09/08 06:10:43;;;;;;;8.77;7.55;;;16.50;99.90;;;;;;5006194;28;20067;-73
2023/09/08 06:13:10;;;;;;;11.07;7.15;;;16.70;99.90;;;;;;5023354;28;20231;-73
2023/09/08 06:15:35;;;;;;;8.70;6.85;;;16.90;99.90;;;;;;4994337;28;20033;-73
2023/09/08 06:18:01;;;;;;;10.05;6.35;;;17.10;99.90;;;;;;5008261;28;20045;-73
2023/09/08 06:20:27;;;;;;;10.13;7.20;;;17.20;99.90;;;;;;5000777;28;20045;-74
2023/09/08 06:22:53;;;;;;;9.65;6.65;;;17.30;99.90;;;;;;5015599;28;20044;-74
2023/09/08 06:25:18;;;;;;;8.95;6.63;;;17.30;82.00;;;;;;5011529;28;20047;-74
2023/09/08 06:27:44;;;;;;;8.43;6.28;;;17.40;41.30;;;;;;5011813;28;20455;-74
2023/09/08 06:30:10;;;;;;;8.80;6.25;;;17.30;1.50;;;;;;5021354;28;20044;-74
2023/09/08 06:32:36;;;;;;;10.88;6.00;;;17.40;1.00;;;;;;5025880;28;20100;-74
2023/09/08 06:35:02;;;;;;;9.52;5.60;;;17.40;1.00;;;;;;5002175;28;20473;-74
2023/09/08 06:37:28;;;;;;;8.50;5.95;;;17.40;1.00;;;;;;5038848;28;20060;-74
2023/09/08 06:39:55;;;;;;;7.72;6.00;;;17.40;1.00;;;;;;5020569;28;20110;-74
2023/09/08 06:42:20;;;;;;;11.50;6.20;;;17.50;1.00;;;;;;5008227;28;20123;-73
2023/09/08 06:44:46;;;;;;;8.35;6.07;;;17.50;99.90;;;;;;5003257;28;20120;-73
2023/09/08 06:47:11;;;;;;;8.40;5.93;;;17.50;99.90;;;;;;5020739;28;20573;-73
2023/09/08 06:49:37;;;;;;;7.97;5.80;;;17.50;99.90;;;;;;5024120;28;20064;-73
2023/09/08 06:52:03;;;;;;;7.63;6.30;;;17.50;99.90;;;;;;5006537;28;20174;-73
2023/09/08 06:54:28;;;;;;;8.13;6.30;;;17.50;99.90;;;;;;5026314;28;20040;-73
2023/09/08 06:56:54;;;;;;;10.18;6.45;;;17.60;99.90;;;;;;4996394;28;20025;-72
2023/09/08 06:59:19;;;;;;;10.70;6.95;;;17.60;99.90;;;;;;5009524;28;20037;-73
2023/09/08 07:01:45;;;;;;;10.60;6.32;;;17.60;99.90;;;;;;5006718;28;20072;-72
2023/09/08 07:04:10;;;;;;;9.20;6.22;;;17.70;99.90;;;;;;5005756;28;20057;-73
2023/09/08 07:06:38;;;;;;;8.18;6.22;;;17.80;99.90;;;;;;5009750;28;20453;-73
2023/09/08 07:09:04;;;;;;;13.05;6.38;;;17.80;99.90;;;;;;5008358;28;20063;-72
2023/09/08 07:11:30;;;;;;;8.85;6.15;;;17.90;74.80;;;;;;5017254;28;20499;-73
2023/09/08 07:13:56;;;;;;;9.70;5.65;;;17.90;36.10;;;;;;5015474;28;20545;-74
2023/09/08 07:16:22;;;;;;;9.50;6.25;;;18.00;9.70;;;;;;4996791;28;20045;-72
2023/09/08 07:18:47;;;;;;;8.10;6.00;;;18.00;1.00;;;;;;4993502;28;20073;-74
2023/09/08 07:21:13;;;;;;;8.60;6.55;;;18.20;1.00;;;;;;4998323;28;20040;-74
2023/09/08 07:23:39;;;;;;;9.43;6.38;;;18.10;1.00;;;;;;4993740;28;20048;-74
2023/09/08 07:26:04;;;;;;;7.95;5.75;;;18.20;1.00;;;;;;5006114;28;20052;-74
2023/09/08 07:28:30;;;;;;;9.98;6.57;;;18.30;1.00;;;;;;5012633;28;20037;-74
2023/09/08 07:31:03;;;;;;;9.00;6.22;;;18.30;1.00;;;;;;5017664;28;20032;-73
2023/09/08 07:33:29;;;;;;;7.93;6.20;;;18.40;1.00;;;;;;5015703;28;20045;-74
2023/09/08 07:35:54;;;;;;;8.75;6.35;;;18.40;1.00;;;;;;5004362;28;20053;-73
2023/09/08 07:38:20;;;;;;;8.50;5.60;;;18.50;1.00;;;;;;5018545;28;20131;-74
2023/09/08 07:40:45;;;;;;;10.80;5.70;;;18.60;1.00;;;;;;5001350;28;20384;-73
2023/09/08 07:43:11;;;;;;;8.30;5.30;;;18.70;1.00;;;;;;5002674;28;20057;-73
2023/09/08 07:45:37;;;;;;;8.32;6.03;;;18.70;1.00;;;;;;4998682;28;20696;-72
2023/09/08 07:48:03;;;;;;;8.35;5.70;;;18.80;1.00;;;;;;5016679;28;20037;-74
2023/09/08 07:50:29;;;;;;;8.70;6.30;;;18.90;1.00;;;;;;5004342;28;20041;-75
2023/09/08 07:52:56;;;;;;;6.70;5.78;;;19.00;1.00;;;;;;5006005;28;20119;-72
2023/09/08 07:55:23;;;;;;;7.80;5.50;;;19.10;1.00;;;;;;5006429;28;20051;-75
2023/09/08 07:57:50;;;;;;;9.50;5.88;;;19.20;1.00;;;;;;5001021;28;20411;-74
2023/09/08 08:00:17;;;;;;;6.40;5.70;;;19.30;99.90;;;;;;5026032;28;20091;-74
2023/09/08 08:02:45;;;;;;;7.13;5.13;;;19.40;99.90;;;;;;5015563;28;20045;-74
2023/09/08 08:05:11;;;;;;;6.65;5.03;;;19.60;99.90;;;;;;5024405;28;20449;-75
2023/09/08 08:07:38;;;;;;;7.97;5.53;;;19.60;99.90;;;;;;5027379;28;20041;-75
2023/09/08 08:10:05;;;;;;;10.68;5.20;;;19.80;99.90;;;;;;5013575;28;20662;-75
2023/09/08 08:12:31;;;;;;;6.75;4.90;;;19.90;99.90;;;;;;5006106;28;20067;-75
2023/09/08 08:14:58;;;;;;;6.53;4.70;;;20.00;99.90;;;;;;5008236;28;20041;-75
2023/09/08 08:17:25;;;;;;;6.93;5.20;;;20.10;99.90;;;;;;5030930;28;20439;-75
2023/09/08 08:19:51;;;;;;;6.38;5.07;;;20.20;99.90;;;;;;5031316;28;20041;-75
2023/09/08 08:22:16;;;;;;;7.05;5.50;;;20.20;99.90;;;;;;5014503;28;20045;-75
2023/09/08 08:24:42;;;;;;;8.52;4.78;;;20.40;99.90;;;;;;5010029;28;20111;-75
2023/09/08 08:27:08;;;;;;;5.65;4.85;;;20.40;99.90;;;;;;5026951;28;20037;-75
2023/09/08 08:29:33;;;;;;;7.65;4.75;;;20.60;99.90;;;;;;5028559;28;20045;-75
2023/09/08 08:31:59;;;;;;;5.70;4.63;;;20.70;99.90;;;;;;5026345;28;20584;-75
2023/09/08 08:34:25;;;;;;;6.53;4.28;;;20.80;99.90;;;;;;5014147;28;20045;-75
2023/09/08 08:36:50;;;;;;;6.68;4.60;;;20.90;99.90;;;;;;5026044;28;20032;-75
2023/09/08 08:39:16;;;;;;;5.20;4.18;;;21.10;99.90;;;;;;5013183;28;20040;-75
2023/09/08 08:41:42;;;;;;;6.25;4.25;;;21.20;99.90;;;;;;5038679;28;20097;-75
2023/09/08 08:44:08;;;;;;;5.78;4.38;;;21.20;99.90;;;;;;5018796;28;20069;-75
2023/09/08 08:46:36;;;;;;;5.55;4.72;;;21.40;99.90;;;;;;5022017;28;20045;-75
2023/09/08 08:49:03;;;;;;;5.72;4.22;;;21.60;99.90;;;;;;5023891;28;20032;-75
2023/09/08 08:51:30;;;;;;;5.07;4.05;;;21.70;99.90;;;;;;5019757;28;20079;-75
2023/09/08 08:53:57;;;;;;;6.50;4.30;;;21.70;99.90;;;;;;5030102;28;20072;-75
2023/09/08 08:56:22;;;;;;;6.72;4.18;;;21.90;99.90;;;;;;5014074;28;20037;-75
2023/09/08 08:58:49;;;;;;;4.85;3.78;;;22.00;99.90;;;;;;5029790;28;20033;-75
2023/09/08 09:01:20;;;;;;;5.30;3.65;;;22.20;99.90;;;;;;5013577;28;20036;-76
2023/09/08 09:03:49;;;;;;;5.53;3.63;;;22.40;99.90;;;;;;5031813;28;20045;-76
2023/09/08 09:06:15;;;;;;;6.95;4.10;;;22.60;77.10;;;;;;5017327;28;20433;-76
2023/09/08 09:08:43;;;;;;;4.35;3.65;;;22.90;31.10;;;;;;5029688;28;20048;-76
2023/09/08 09:11:09;;;;;;;5.07;3.65;;;23.20;2.70;;;;;;5010369;28;20071;-76
2023/09/08 09:13:35;;;;;;;5.00;3.65;;;23.40;1.00;;;;;;5013362;28;20048;-76
2023/09/08 09:16:03;;;;;;;4.03;3.50;;;23.60;1.00;;;;;;5013682;28;20033;-75
2023/09/08 09:18:30;;;;;;;6.55;3.53;;;23.80;1.00;;;;;;5013416;28;20040;-76
2023/09/08 09:21:00;;;;;;;6.32;3.83;;;24.00;1.00;;;;;;5030140;28;20037;-75
2023/09/08 09:23:34;;;;;;;5.00;3.67;;;24.20;1.00;;;;;;5011566;28;20517;-76
2023/09/08 09:26:01;;;;;;;4.45;3.25;;;24.40;1.00;;;;;;5024808;28;20044;-74
2023/09/08 09:28:29;;;;;;;5.50;3.75;;;24.70;1.00;;;;;;5029701;28;20507;-75
2023/09/08 09:30:55;;;;;;;5.55;3.38;;;25.00;1.00;;;;;;5012936;28;20069;-75
2023/09/08 09:33:25;;;;;;;6.50;3.08;;;25.50;1.00;;;;;;5013045;28;20056;-76
2023/09/08 09:35:51;;;;;;;5.78;3.88;;;26.90;1.00;;;;;;5012188;28;20037;-76
2023/09/08 09:38:18;;;;;;;6.10;3.55;;;28.60;1.00;;;;;;5029969;28;20443;-75
2023/09/08 09:40:45;;;;;;;4.72;3.28;;;29.90;1.00;;;;;;5027625;28;20380;-76
2023/09/08 09:43:14;;;;;;;4.25;3.85;;;31.20;1.00;;;;;;5024046;28;20522;-75
2023/09/08 09:45:41;;;;;;;7.15;3.10;;;32.20;1.00;;;;;;5023252;28;20087;-76
2023/09/08 09:48:11;;;;;;;3.85;3.33;;;33.10;1.00;;;;;;5029692;28;20082;-76
2023/09/08 09:50:39;;;;;;;3.50;2.83;;;33.90;1.00;;;;;;5029827;28;20045;-75
2023/09/08 09:53:15;;;;;;;3.38;2.90;;;34.70;1.00;;;;;;5019098;28;20033;-76
2023/09/08 09:55:42;;;;;;;3.70;3.30;;;35.20;1.00;;;;;;5013338;28;20029;-76
2023/09/08 09:58:10;;;;;;;5.30;2.95;;;35.80;1.00;;;;;;5026824;28;20155;-76
2023/09/08 10:00:37;;;;;;;4.53;3.10;;;36.30;1.00;;;;;;5001749;28;20048;-76
2023/09/08 10:03:04;;;;;;;3.42;2.88;;;36.90;1.00;;;;;;5032609;28;20091;-76
2023/09/08 10:05:30;;;;;;;4.13;3.22;;;37.20;1.00;;;;;;5028165;28;20036;-77
2023/09/08 10:07:56;;;;;;;3.45;2.80;;;37.50;1.00;;;;;;5027598;28;20036;-76
2023/09/08 10:10:22;;;;;;;3.83;3.10;;;37.70;1.00;;;;;;5012943;28;20392;-77
2023/09/08 10:13:01;;;;;;;7.18;3.08;;;38.10;1.00;;;;;;5002463;28;20037;-78
2023/09/08 10:15:31;;;;;;;3.28;2.40;;;38.30;1.00;;;;;;5008932;28;20124;-78
2023/09/08 10:17:57;;;;;;;4.20;2.85;;;38.60;1.00;;;;;;5007829;28;20180;-78
2023/09/08 10:20:28;;;;;;;4.13;2.80;;;38.90;1.00;;;;;;4997919;28;20041;-78
2023/09/08 10:23:10;;;;;;;4.65;2.97;;;39.20;1.00;;;;;;5016424;28;20049;-78
2023/09/08 10:25:43;;;;;;;5.60;2.58;;;39.40;1.00;;;;;;5012828;28;20037;-78
2023/09/08 10:28:09;;;;;;;3.60;2.53;;;39.60;1.00;;;;;;5008956;28;20525;-78
2023/09/08 10:30:36;;;;;;;6.30;2.67;;;39.80;1.00;;;;;;5003171;28;20172;-79
2023/09/08 10:33:05;;;;;;;3.25;2.92;;;39.90;1.00;;;;;;5014579;28;20049;-79
2023/09/08 10:35:31;;;;;;;2.78;2.42;;;40.00;1.00;;;;;;5017273;28;20037;-79
2023/09/08 10:38:23;;;;;;;3.35;2.45;;;40.30;1.00;;;;;;4997356;28;20131;-77
2023/09/08 10:40:49;;;;;;;3.03;2.58;;;40.60;1.00;;;;;;5030307;28;20167;-79
2023/09/08 10:43:15;;;;;;;2.85;2.47;;;40.80;1.00;;;;;;5022471;28;20463;-79
2023/09/08 10:45:41;;;;;;;3.95;2.90;;;40.80;1.00;;;;;;5024491;28;20121;-79
2023/09/08 10:48:07;;;;;;;3.35;2.95;;;41.00;1.00;;;;;;5002903;28;20668;-79
2023/09/08 10:50:35;;;;;;;4.85;2.47;;;41.40;1.00;;;;;;5006780;28;20447;-79
2023/09/08 10:53:14;;;;;;;2.70;2.20;;;41.60;1.00;;;;;;5029437;28;20037;-79
2023/09/08 10:55:53;;;;;;;3.45;2.70;;;41.80;1.00;;;;;;5013033;28;20059;-78
2023/09/08 10:58:21;;;;;;;3.20;2.58;;;42.10;1.00;;;;;;5027733;28;20114;-79
2023/09/08 11:00:51;;;;;;;3.60;2.83;;;42.40;1.00;;;;;;5010755;28;20037;-77
2023/09/08 11:03:27;;;;;;;4.60;3.08;;;42.60;1.00;;;;;;5014264;28;20094;-78
2023/09/08 11:05:53;;;;;;;6.68;2.42;;;42.70;1.00;;;;;;5011328;28;20041;-78
2023/09/08 11:08:19;;;;;;;7.07;2.72;;;42.70;1.00;;;;;;5017549;28;20044;-78
2023/09/08 11:10:45;;;;;;;3.08;2.33;;;42.80;1.00;;;;;;5014811;28;20033;-79
2023/09/08 11:13:10;;;;;;;3.88;2.63;;;42.70;1.00;;;;;;5011065;28;20040;-79
2023/09/08 11:15:37;;;;;;;3.40;2.90;;;42.70;1.00;;;;;;5009589;28;20083;-79
2023/09/08 11:18:07;;;;;;;4.15;2.60;;;42.90;1.00;;;;;;5009874;28;20136;-79
2023/09/08 11:20:34;;;;;;;4.80;2.60;;;43.20;1.00;;;;;;5029927;28;20044;-79
2023/09/08 11:23:00;;;;;;;2.92;2.55;;;43.50;1.00;;;;;;5009192;28;20552;-79
2023/09/08 11:25:25;;;;;;;4.57;2.95;;;43.70;1.00;;;;;;5009188;28;20801;-79
2023/09/08 11:27:51;;;;;;;3.25;2.60;;;43.90;1.00;;;;;;5021011;28;20040;-79
2023/09/08 11:30:17;;;;;;;2.70;2.30;;;43.90;1.00;;;;;;5005037;28;20130;-79
2023/09/08 11:32:43;;;;;;;3.25;2.75;;;44.00;1.00;;;;;;5011946;28;20033;-79
2023/09/08 11:35:10;;;;;;;5.05;2.90;;;44.00;1.00;;;;;;5001173;28;20049;-80
2023/09/08 11:37:42;;;;;;;2.63;2.08;;;43.90;1.00;;;;;;5014145;28;20091;-79
2023/09/08 11:40:13;;;;;;;4.05;2.47;;;43.90;1.00;;;;;;4998200;28;20052;-79
2023/09/08 11:42:44;;;;;;;2.60;2.40;;;44.20;1.00;;;;;;5019259;28;20052;-80
2023/09/08 11:45:21;;;;;;;2.92;2.40;;;44.30;1.00;;;;;;5000701;28;21740;-80
2023/09/08 11:47:49;;;;;;;5.63;2.83;;;44.30;1.00;;;;;;5009159;28;20052;-79
2023/09/08 11:50:18;;;;;;;3.72;2.50;;;44.30;1.00;;;;;;5019122;28;20037;-80
2023/09/08 11:52:51;;;;;;;2.60;2.40;;;44.50;1.00;;;;;;5025019;28;20029;-80
2023/09/08 11:55:19;;;;;;;2.67;2.10;;;44.70;1.00;;;;;;5014034;28;20072;-79
2023/09/08 11:57:48;;;;;;;2.88;2.58;;;44.70;1.00;;;;;;5022631;28;20060;-79
2023/09/08 12:00:17;;;;;;;4.80;2.40;;;44.60;1.00;;;;;;5018403;28;20059;-79
2023/09/08 12:02:44;;;;;;;4.38;2.35;;;44.70;1.00;;;;;;5037127;28;20045;-80
2023/09/08 12:05:21;;;;;;;4.55;2.45;;;44.50;1.00;;;;;;5003690;28;20049;-79
2023/09/08 12:07:47;;;;;;;2.50;2.30;;;44.40;1.00;;;;;;5011759;28;20364;-81
2023/09/08 12:10:14;;;;;;;5.13;2.35;;;44.50;1.00;;;;;;5026264;28;20045;-80
2023/09/08 12:12:43;;;;;;;4.30;2.45;;;44.60;1.00;;;;;;5018036;28;20502;-80
2023/09/08 12:15:09;;;;;;;3.08;2.72;;;44.80;1.00;;;;;;5001536;28;20120;-80
2023/09/08 12:17:49;;;;;;;3.47;2.50;;;45.10;1.00;;;;;;5009918;28;20068;-81
2023/09/08 12:20:16;;;;;;;3.08;2.13;;;45.00;1.00;;;;;;5002183;28;20077;-79
2023/09/08 12:22:51;;;;;;;4.78;2.30;;;45.00;1.00;;;;;;5006569;28;20048;-80
2023/09/08 12:25:18;;;;;;;3.05;2.15;;;45.10;1.00;;;;;;5010468;28;20041;-80
2023/09/08 12:27:50;;;;;;;3.75;2.53;;;45.40;99.90;;;;;;5007525;28;20062;-81
2023/09/08 12:30:20;;;;;;;3.30;2.60;;;45.60;99.90;;;;;;5014006;28;20495;-81
2023/09/08 12:32:49;;;;;;;3.75;2.40;;;45.80;99.90;;;;;;5021550;28;20036;-81
2023/09/08 12:35:24;;;;;;;2.95;2.40;;;45.80;99.90;;;;;;5010339;28;20128;-81
2023/09/08 12:37:57;;;;;;;3.55;2.47;;;45.60;99.90;;;;;;5010505;28;20041;-81
2023/09/08 12:40:24;;;;;;;3.92;2.47;;;45.30;1.00;;;;;;5009972;28;20514;-81
2023/09/08 12:42:54;;;;;;;3.95;2.10;;;45.40;99.90;;;;;;5019183;28;20041;-80
2023/09/08 12:45:25;;;;;;;3.05;2.75;;;45.40;99.90;;;;;;5001921;28;20084;-81
2023/09/08 12:48:01;;;;;;;4.63;2.53;;;45.60;99.90;;;;;;5023459;28;20447;-80
2023/09/08 12:50:27;;;;;;;2.75;2.47;;;45.70;99.90;;;;;;5016061;28;20068;-81